createdAt,value
2023-02-04T00:00:22.155Z,2.38
2023-02-04T00:02:50.005Z,2.52
2023-02-04T00:05:18.424Z,2.62
2023-02-04T00:07:45.568Z,2.45
2023-02-04T00:10:12.619Z,2.57
2023-02-04T00:12:39.950Z,2.74
2023-02-04T00:15:07.876Z,2.88
2023-02-04T00:17:34.820Z,2.97
2023-02-04T00:20:02.118Z,2.71
2023-02-04T00:22:29.509Z,2.90
2023-02-04T00:24:56.937Z,2.92
2023-02-04T00:27:26.138Z,2.96
2023-02-04T00:29:53.546Z,2.91
2023-02-04T00:32:20.810Z,2.81
2023-02-04T00:34:47.983Z,2.72
2023-02-04T00:37:15.404Z,2.60
2023-02-04T00:39:42.645Z,2.64
2023-02-04T00:42:09.907Z,2.46
2023-02-04T00:44:37.251Z,2.42
2023-02-04T00:47:05.770Z,2.48
2023-02-04T00:49:34.735Z,2.56
2023-02-04T00:52:02.453Z,2.58
2023-02-04T00:54:29.610Z,2.53
2023-02-04T00:56:56.620Z,2.56
2023-02-04T00:59:24.227Z,2.49
2023-02-04T01:01:51.948Z,2.55
2023-02-04T01:04:19.011Z,2.37
2023-02-04T01:06:46.158Z,2.24
2023-02-04T01:09:13.146Z,2.12
2023-02-04T01:11:40.149Z,2.11
2023-02-04T01:14:07.137Z,2.09
2023-02-04T01:16:34.233Z,1.38
2023-02-04T01:19:01.223Z,1.37
2023-02-04T01:21:28.261Z,1.60
2023-02-04T01:23:55.433Z,1.37
2023-02-04T01:26:22.815Z,1.53
2023-02-04T01:28:50.110Z,1.56
2023-02-04T01:31:17.706Z,1.71
2023-02-04T01:33:44.800Z,1.71
2023-02-04T01:36:12.179Z,1.68
2023-02-04T01:38:39.184Z,1.81
2023-02-04T01:41:06.626Z,1.76
2023-02-04T01:43:34.360Z,1.85
2023-02-04T01:46:02.898Z,1.89
2023-02-04T01:48:30.648Z,1.72
2023-02-04T01:51:06.394Z,1.68
2023-02-04T01:53:34.303Z,1.70
2023-02-04T01:56:01.971Z,1.78
2023-02-04T01:58:32.524Z,1.86
2023-02-04T02:00:59.754Z,1.90
2023-02-04T02:03:26.755Z,1.94
2023-02-04T02:05:55.878Z,1.87
2023-02-04T02:08:26.166Z,1.78
2023-02-04T02:10:53.275Z,1.78
2023-02-04T02:13:20.480Z,1.80
2023-02-04T02:15:48.338Z,1.79
2023-02-04T02:18:17.736Z,1.70
2023-02-04T02:20:45.596Z,1.56
2023-02-04T02:23:32.458Z,1.59
2023-02-04T02:25:59.478Z,1.56
2023-02-04T02:28:26.528Z,1.70
2023-02-04T02:30:53.677Z,1.69
2023-02-04T02:33:21.695Z,1.69
2023-02-04T02:35:50.096Z,1.89
2023-02-04T02:38:18.950Z,1.82
2023-02-04T02:40:47.167Z,1.76
2023-02-04T02:43:18.422Z,1.79
2023-02-04T02:45:46.148Z,1.76
2023-02-04T02:48:13.378Z,1.73
2023-02-04T02:50:42.178Z,1.79
2023-02-04T02:53:15.187Z,1.69
2023-02-04T02:55:43.434Z,1.66
2023-02-04T02:58:18.735Z,1.58
2023-02-04T03:00:46.019Z,1.62
2023-02-04T03:03:27.506Z,1.48
2023-02-04T03:06:03.411Z,1.48
2023-02-04T03:08:31.100Z,1.52
2023-02-04T03:10:58.118Z,1.61
2023-02-04T03:13:26.229Z,1.74
2023-02-04T03:15:54.105Z,1.81
2023-02-04T03:18:21.870Z,1.87
2023-02-04T03:20:51.712Z,1.81
2023-02-04T03:23:20.833Z,1.89
2023-02-04T03:25:50.057Z,1.64
2023-02-04T03:28:18.054Z,1.72
2023-02-04T03:30:54.087Z,1.35
2023-02-04T03:33:21.222Z,1.15
2023-02-04T03:35:49.037Z,1.20
2023-02-04T03:38:15.958Z,1.26
2023-02-04T03:40:43.342Z,1.14
2023-02-04T03:43:10.526Z,1.17
2023-02-04T03:45:45.254Z,1.28
2023-02-04T03:48:13.262Z,1.40
2023-02-04T03:50:40.693Z,1.42
2023-02-04T03:53:08.048Z,1.38
2023-02-04T03:55:36.565Z,1.57
2023-02-04T03:58:04.619Z,1.41
2023-02-04T04:00:34.062Z,1.28
2023-02-04T04:03:01.200Z,1.30
2023-02-04T04:05:28.873Z,1.27
2023-02-04T04:07:56.099Z,1.42
2023-02-04T04:10:25.758Z,1.51
2023-02-04T04:12:52.726Z,1.52
2023-02-04T04:15:19.709Z,1.56
2023-02-04T04:17:46.757Z,1.49
2023-02-04T04:20:13.891Z,1.50
2023-02-04T04:22:40.925Z,1.49
2023-02-04T04:25:08.821Z,1.39
2023-02-04T04:27:36.119Z,1.55
2023-02-04T04:30:04.768Z,1.59
2023-02-04T04:32:32.536Z,1.57
2023-02-04T04:34:59.782Z,1.56
2023-02-04T04:37:26.914Z,1.59
2023-02-04T04:39:54.415Z,1.61
2023-02-04T04:42:21.666Z,1.48
2023-02-04T04:44:49.289Z,1.21
2023-02-04T04:47:16.485Z,1.19
2023-02-04T04:49:43.486Z,1.14
2023-02-04T04:52:11.019Z,1.27
2023-02-04T04:54:38.109Z,1.41
2023-02-04T04:57:05.131Z,1.35
2023-02-04T04:59:32.139Z,1.40
2023-02-04T05:01:59.106Z,1.46
2023-02-04T05:04:26.198Z,1.49
2023-02-04T05:06:53.181Z,1.56
2023-02-04T05:09:20.231Z,1.55
2023-02-04T05:11:48.101Z,1.55
2023-02-04T05:14:15.068Z,1.68
2023-02-04T05:16:42.123Z,1.70
2023-02-04T05:19:09.407Z,1.62
2023-02-04T05:21:36.388Z,1.55
2023-02-04T05:24:03.464Z,1.63
2023-02-04T05:26:31.398Z,1.39
2023-02-04T05:29:00.752Z,1.12
2023-02-04T05:31:28.438Z,1.16
2023-02-04T05:33:55.537Z,1.06
2023-02-04T05:36:22.579Z,1.02
2023-02-04T05:38:49.766Z,1.31
2023-02-04T05:41:16.810Z,1.18
2023-02-04T05:43:44.007Z,1.33
2023-02-04T05:46:11.264Z,1.36
2023-02-04T05:48:40.436Z,1.47
2023-02-04T05:51:07.757Z,1.39
2023-02-04T05:53:34.993Z,1.40
2023-02-04T05:56:04.688Z,1.48
2023-02-04T05:58:33.921Z,1.61
2023-02-04T06:01:02.133Z,1.62
2023-02-04T06:03:30.813Z,1.55
2023-02-04T06:05:58.538Z,1.64
2023-02-04T06:08:25.665Z,1.80
2023-02-04T06:10:52.601Z,1.79
2023-02-04T06:13:20.048Z,1.70
2023-02-04T06:15:47.044Z,1.66
2023-02-04T06:18:14.736Z,1.70
2023-02-04T06:20:42.317Z,1.64
2023-02-04T06:23:09.684Z,1.65
2023-02-04T06:25:36.929Z,1.69
2023-02-04T06:28:04.716Z,1.77
2023-02-04T06:30:32.339Z,1.81
2023-02-04T06:32:59.767Z,1.85
2023-02-04T06:35:26.949Z,1.85
2023-02-04T06:37:54.100Z,1.83
2023-02-04T06:40:21.455Z,1.90
2023-02-04T06:42:48.977Z,2.00
2023-02-04T06:45:16.370Z,1.94
2023-02-04T06:47:43.361Z,1.94
2023-02-04T06:50:10.825Z,2.04
2023-02-04T06:52:37.967Z,2.14
2023-02-04T06:55:05.225Z,1.90
2023-02-04T06:57:32.195Z,1.84
2023-02-04T06:59:59.234Z,1.87
2023-02-04T07:02:26.401Z,2.04
2023-02-04T07:04:53.443Z,2.39
2023-02-04T07:07:23.448Z,2.78
2023-02-04T07:09:50.458Z,3.21
2023-02-04T07:12:17.391Z,3.21
2023-02-04T07:14:44.405Z,3.40
2023-02-04T07:17:13.556Z,3.53
2023-02-04T07:19:40.517Z,3.85
2023-02-04T07:22:07.489Z,3.98
2023-02-04T07:24:38.501Z,4.29
2023-02-04T07:27:07.943Z,4.31
2023-02-04T07:29:35.007Z,4.56
2023-02-04T07:32:02.236Z,4.80
2023-02-04T07:34:29.272Z,4.87
2023-02-04T07:36:56.993Z,4.73
2023-02-04T07:39:23.980Z,5.06
2023-02-04T07:41:51.113Z,4.94
2023-02-04T07:44:23.454Z,5.12
2023-02-04T07:46:50.521Z,5.47
2023-02-04T07:49:17.494Z,5.76
2023-02-04T07:51:44.566Z,5.95
2023-02-04T07:54:13.668Z,5.78
2023-02-04T07:56:41.325Z,5.87
2023-02-04T07:59:08.323Z,6.14
2023-02-04T08:01:35.383Z,6.33
2023-02-04T08:04:02.511Z,6.32
2023-02-04T08:06:29.716Z,6.46
2023-02-04T08:08:57.070Z,6.36
2023-02-04T08:11:24.464Z,6.64
2023-02-04T08:13:51.436Z,6.64
2023-02-04T08:16:21.158Z,6.76
2023-02-04T08:18:50.500Z,6.87
2023-02-04T08:21:19.482Z,6.98
2023-02-04T08:23:46.758Z,7.03
2023-02-04T08:26:13.966Z,7.24
2023-02-04T08:28:41.046Z,7.24
2023-02-04T08:31:12.422Z,7.23
2023-02-04T08:33:40.296Z,7.46
2023-02-04T08:36:10.056Z,7.48
2023-02-04T08:38:37.675Z,7.52
2023-02-04T08:41:05.009Z,7.47
2023-02-04T08:43:32.099Z,7.44
2023-02-04T08:45:59.110Z,7.42
2023-02-04T08:48:26.481Z,7.44
2023-02-04T08:50:53.425Z,7.34
2023-02-04T08:53:20.635Z,7.37
2023-02-04T08:55:47.877Z,6.90
2023-02-04T08:58:17.305Z,7.03
2023-02-04T09:00:44.716Z,6.88
2023-02-04T09:03:11.996Z,6.97
2023-02-04T09:05:39.218Z,6.55
2023-02-04T09:08:06.488Z,6.31
2023-02-04T09:10:33.918Z,6.34
2023-02-04T09:13:03.972Z,6.18
2023-02-04T09:15:33.429Z,6.22
2023-02-04T09:18:11.741Z,6.31
2023-02-04T09:20:39.462Z,6.42
2023-02-04T09:23:09.261Z,6.12
2023-02-04T09:25:36.494Z,6.21
2023-02-04T09:28:03.494Z,6.43
2023-02-04T09:30:30.950Z,6.26
2023-02-04T09:32:58.235Z,5.80
2023-02-04T09:35:32.728Z,6.02
2023-02-04T09:38:02.460Z,6.22
2023-02-04T09:40:34.879Z,6.39
2023-02-04T09:43:06.456Z,6.40
2023-02-04T09:45:36.321Z,6.41
2023-02-04T09:48:05.810Z,6.56
2023-02-04T09:50:34.288Z,6.37
2023-02-04T09:53:05.564Z,6.21
2023-02-04T09:55:35.941Z,6.03
2023-02-04T09:58:03.417Z,6.21
2023-02-04T10:00:32.084Z,6.35
2023-02-04T10:03:02.627Z,6.21
2023-02-04T10:05:31.061Z,6.46
2023-02-04T10:07:59.334Z,6.38
2023-02-04T10:10:27.953Z,6.45
2023-02-04T10:12:58.734Z,6.11
2023-02-04T10:15:26.296Z,6.08
2023-02-04T10:17:58.949Z,6.10
2023-02-04T10:20:26.347Z,6.25
2023-02-04T10:22:56.426Z,6.27
2023-02-04T10:25:24.983Z,6.50
2023-02-04T10:27:57.850Z,6.53
2023-02-04T10:30:28.109Z,6.40
2023-02-04T10:32:55.170Z,6.39
2023-02-04T10:35:22.931Z,6.58
2023-02-04T10:38:04.006Z,6.66
2023-02-04T10:40:34.071Z,6.41
2023-02-04T10:43:10.383Z,6.57
2023-02-04T10:45:38.157Z,6.53
2023-02-04T10:48:05.830Z,6.56
2023-02-04T10:50:33.332Z,6.59
2023-02-04T10:53:20.223Z,6.97
2023-02-04T10:55:49.114Z,7.38
2023-02-04T10:58:21.227Z,7.40
2023-02-04T11:00:48.293Z,7.72
2023-02-04T11:03:27.129Z,7.72
2023-02-04T11:05:58.278Z,8.08
2023-02-04T11:08:34.158Z,8.42
2023-02-04T11:11:21.391Z,8.58
2023-02-04T11:13:51.253Z,8.81
2023-02-04T11:16:18.328Z,8.79
2023-02-04T11:18:57.541Z,8.61
2023-02-04T11:21:24.591Z,8.29
2023-02-04T11:24:03.062Z,8.24
2023-02-04T11:26:36.664Z,8.01
2023-02-04T11:29:03.675Z,8.01
2023-02-04T11:31:44.486Z,8.07
2023-02-04T11:34:24.303Z,8.32
2023-02-04T11:37:08.368Z,8.48
2023-02-04T11:39:39.694Z,8.61
2023-02-04T11:42:19.997Z,9.23
2023-02-04T11:44:56.583Z,9.66
2023-02-04T11:47:26.860Z,10.13
2023-02-04T11:50:02.170Z,10.22
2023-02-04T11:52:29.566Z,10.63
2023-02-04T11:54:59.770Z,10.92
2023-02-04T11:57:29.039Z,10.73
2023-02-04T11:59:56.100Z,10.38
2023-02-04T12:02:28.562Z,10.31
2023-02-04T12:05:13.795Z,9.23
2023-02-04T12:07:40.946Z,9.15
2023-02-04T12:10:34.026Z,8.75
2023-02-04T12:13:02.354Z,8.17
2023-02-04T12:15:37.547Z,7.55
2023-02-04T12:18:09.677Z,6.62
2023-02-04T12:20:37.525Z,5.86
2023-02-04T12:23:05.405Z,5.36
2023-02-04T12:25:35.504Z,5.38
2023-02-04T12:28:02.595Z,5.71
2023-02-04T12:30:30.305Z,6.24
2023-02-04T12:32:57.363Z,7.15
2023-02-04T12:35:24.706Z,7.58
2023-02-04T12:37:52.059Z,7.70
2023-02-04T12:40:21.475Z,8.41
2023-02-04T12:42:48.899Z,9.72
2023-02-04T12:45:17.427Z,10.61
2023-02-04T12:47:45.314Z,12.06
2023-02-04T12:50:16.112Z,9.69
2023-02-04T12:52:59.379Z,9.32
2023-02-04T12:55:28.459Z,9.53
2023-02-04T12:57:57.730Z,9.52
2023-02-04T13:00:27.853Z,9.42
2023-02-04T13:02:59.313Z,9.45
2023-02-04T13:05:27.293Z,9.36
2023-02-04T13:07:56.655Z,9.01
2023-02-04T13:10:24.279Z,8.39
2023-02-04T13:12:51.831Z,8.63
2023-02-04T13:15:19.126Z,8.73
2023-02-04T13:17:46.091Z,8.60
2023-02-04T13:20:15.334Z,8.48
2023-02-04T13:22:42.349Z,8.48
2023-02-04T13:25:11.769Z,8.50
2023-02-04T13:27:39.463Z,8.58
2023-02-04T13:30:08.647Z,8.45
2023-02-04T13:32:35.649Z,8.42
2023-02-04T13:35:02.736Z,8.37
2023-02-04T13:37:29.701Z,8.06
2023-02-04T13:39:56.767Z,7.55
2023-02-04T13:42:23.827Z,6.51
2023-02-04T13:44:50.882Z,4.98
2023-02-04T13:47:17.972Z,4.29
2023-02-04T13:49:44.998Z,3.67
2023-02-04T13:52:12.196Z,3.44
2023-02-04T13:54:39.199Z,3.55
2023-02-04T13:57:06.437Z,3.54
2023-02-04T13:59:33.449Z,3.60
2023-02-04T14:02:00.558Z,3.84
2023-02-04T14:04:27.521Z,3.94
2023-02-04T14:06:55.661Z,4.05
2023-02-04T14:09:23.124Z,4.21
2023-02-04T14:11:50.140Z,4.12
2023-02-04T14:14:17.384Z,3.99
2023-02-04T14:16:44.492Z,3.96
2023-02-04T14:19:11.539Z,3.94
2023-02-04T14:21:38.562Z,3.55
2023-02-04T14:24:08.136Z,3.53
2023-02-04T14:26:35.162Z,3.69
2023-02-04T14:29:04.961Z,3.69
2023-02-04T14:31:31.933Z,3.76
2023-02-04T14:33:59.503Z,3.84
2023-02-04T14:36:26.878Z,3.69
2023-02-04T14:38:53.967Z,3.52
2023-02-04T14:41:21.650Z,3.61
2023-02-04T14:43:48.796Z,3.78
2023-02-04T14:46:15.833Z,3.81
2023-02-04T14:48:42.928Z,3.98
2023-02-04T14:51:10.010Z,3.93
2023-02-04T14:53:37.201Z,3.96
2023-02-04T14:56:04.800Z,3.92
2023-02-04T14:58:33.909Z,4.08
2023-02-04T15:01:01.184Z,4.29
2023-02-04T15:03:28.161Z,4.50
2023-02-04T15:05:55.195Z,4.60
2023-02-04T15:08:22.344Z,4.95
2023-02-04T15:10:49.475Z,4.92
2023-02-04T15:13:16.686Z,4.92
2023-02-04T15:15:43.725Z,4.89
2023-02-04T15:18:11.013Z,4.85
2023-02-04T15:20:40.480Z,4.85
2023-02-04T15:23:07.533Z,4.88
2023-02-04T15:25:36.664Z,4.82
2023-02-04T15:28:03.777Z,4.87
2023-02-04T15:30:31.085Z,4.75
2023-02-04T15:32:58.284Z,4.69
2023-02-04T15:35:25.373Z,4.74
2023-02-04T15:37:52.343Z,4.66
2023-02-04T15:40:19.587Z,4.69
2023-02-04T15:42:48.859Z,4.66
2023-02-04T15:45:16.433Z,4.67
2023-02-04T15:47:43.562Z,4.63
2023-02-04T15:50:11.247Z,4.61
2023-02-04T15:52:38.357Z,4.60
2023-02-04T15:55:05.614Z,4.56
2023-02-04T15:57:32.655Z,4.48
2023-02-04T15:59:59.727Z,4.43
2023-02-04T16:02:26.867Z,4.26
2023-02-04T16:04:53.922Z,4.02
2023-02-04T16:07:20.990Z,3.77
2023-02-04T16:09:47.955Z,3.84
2023-02-04T16:12:14.964Z,3.95
2023-02-04T16:14:41.980Z,3.95
2023-02-04T16:17:11.538Z,3.38
2023-02-04T16:19:38.547Z,3.31
2023-02-04T16:22:06.519Z,3.28
2023-02-04T16:24:34.345Z,3.24
2023-02-04T16:27:01.453Z,3.20
2023-02-04T16:29:31.198Z,3.12
2023-02-04T16:32:00.600Z,3.13
2023-02-04T16:34:28.491Z,3.16
2023-02-04T16:36:55.543Z,3.21
2023-02-04T16:39:22.513Z,3.28
2023-02-04T16:41:49.490Z,3.35
2023-02-04T16:44:16.470Z,3.22
2023-02-04T16:46:43.593Z,3.53
2023-02-04T16:49:10.577Z,3.70
2023-02-04T16:51:37.646Z,3.57
2023-02-04T16:54:04.765Z,3.69
2023-02-04T16:56:35.791Z,3.67
2023-02-04T16:59:03.536Z,3.57
2023-02-04T17:01:31.083Z,3.65
2023-02-04T17:04:01.315Z,3.58
2023-02-04T17:06:32.887Z,3.49
2023-02-04T17:09:00.006Z,3.47
2023-02-04T17:11:29.888Z,3.39
2023-02-04T17:14:07.090Z,3.41
2023-02-04T17:16:37.325Z,3.43
2023-02-04T17:19:05.762Z,3.43
2023-02-04T17:21:35.177Z,3.43
2023-02-04T17:24:04.254Z,3.47
2023-02-04T17:26:37.427Z,3.38
2023-02-04T17:29:07.176Z,3.39
2023-02-04T17:31:34.702Z,3.39
2023-02-04T17:34:03.374Z,3.31
2023-02-04T17:36:31.439Z,3.30
2023-02-04T17:38:58.659Z,3.22
2023-02-04T17:41:28.258Z,3.21
2023-02-04T17:43:55.333Z,3.16
2023-02-04T17:46:22.558Z,3.17
2023-02-04T17:48:49.585Z,3.15
2023-02-04T17:51:17.221Z,3.11
2023-02-04T17:53:46.596Z,3.09
2023-02-04T17:56:14.802Z,3.08
2023-02-04T17:58:42.454Z,3.02
2023-02-04T18:01:15.732Z,2.91
2023-02-04T18:03:43.262Z,2.84
2023-02-04T18:06:29.178Z,2.85
2023-02-04T18:09:01.779Z,2.86
2023-02-04T18:11:36.187Z,3.08
2023-02-04T18:14:17.104Z,2.70
2023-02-04T18:16:44.776Z,2.28
2023-02-04T18:19:22.492Z,2.13
2023-02-04T18:21:49.956Z,2.09
2023-02-04T18:24:30.387Z,2.13
2023-02-04T18:27:01.941Z,2.17
2023-02-04T18:29:35.779Z,2.20
2023-02-04T18:32:14.371Z,2.09
2023-02-04T18:34:44.615Z,2.17
2023-02-04T18:37:29.694Z,2.26
2023-02-04T18:40:11.877Z,2.21
2023-02-04T18:42:41.552Z,1.87
2023-02-04T18:45:27.158Z,1.76
2023-02-04T18:47:56.412Z,2.02
2023-02-04T18:50:30.110Z,2.16
2023-02-04T18:53:16.604Z,1.93
2023-02-04T18:55:49.138Z,1.73
2023-02-04T18:58:19.182Z,1.43
2023-02-04T19:00:52.279Z,1.55
2023-02-04T19:03:30.986Z,1.41
2023-02-04T19:06:00.503Z,1.37
2023-02-04T19:08:49.059Z,1.20
2023-02-04T19:11:36.297Z,1.31
2023-02-04T19:14:37.687Z,1.11
2023-02-04T19:17:26.185Z,0.99
2023-02-04T19:20:00.760Z,1.07
2023-02-04T19:22:52.250Z,1.16
2023-02-04T19:25:41.144Z,1.15
2023-02-04T19:28:37.340Z,1.10
2023-02-04T19:31:07.931Z,1.05
2023-02-04T19:33:40.161Z,0.92
2023-02-04T19:36:27.479Z,0.85
2023-02-04T19:39:03.783Z,0.61
2023-02-04T19:42:19.517Z,0.40
2023-02-04T19:44:46.816Z,0.28
2023-02-04T19:47:25.685Z,0.39
2023-02-04T19:50:01.988Z,0.24
2023-02-04T19:52:37.649Z,0.28
2023-02-04T19:55:16.838Z,0.44
2023-02-04T19:57:52.189Z,0.36
2023-02-04T20:00:35.717Z,0.33
2023-02-04T20:03:28.280Z,0.49
2023-02-04T20:06:01.085Z,0.52
2023-02-04T20:08:46.635Z,0.49
2023-02-04T20:11:28.475Z,0.60
2023-02-04T20:14:02.329Z,0.60
2023-02-04T20:16:39.676Z,0.68
2023-02-04T20:19:21.142Z,0.62
2023-02-04T20:22:19.260Z,0.60
2023-02-04T20:24:46.438Z,0.79
2023-02-04T20:27:23.467Z,0.56
2023-02-04T20:29:58.716Z,0.89
2023-02-04T20:32:27.617Z,0.92
2023-02-04T20:35:21.484Z,0.88
2023-02-04T20:37:53.735Z,0.85
2023-02-04T20:40:30.083Z,0.84
2023-02-04T20:43:02.299Z,0.94
2023-02-04T20:45:41.182Z,0.95
2023-02-04T20:48:18.013Z,0.91
2023-02-04T20:50:53.280Z,1.09
2023-02-04T20:53:30.248Z,0.89
2023-02-04T20:56:07.082Z,0.97
2023-02-04T20:58:39.920Z,0.78
2023-02-04T21:01:34.186Z,0.75
2023-02-04T21:04:16.232Z,0.61
2023-02-04T21:06:43.728Z,0.49
2023-02-04T21:09:23.974Z,0.57
2023-02-04T21:11:53.205Z,0.73
2023-02-04T21:14:20.895Z,0.63
2023-02-04T21:16:58.216Z,0.72
2023-02-04T21:19:28.491Z,0.72
2023-02-04T21:21:57.553Z,0.56
2023-02-04T21:24:26.745Z,0.61
2023-02-04T21:26:53.999Z,0.69
2023-02-04T21:29:21.519Z,0.74
2023-02-04T21:31:48.830Z,0.87
2023-02-04T21:34:16.808Z,0.80
2023-02-04T21:36:43.770Z,0.69
2023-02-04T21:39:11.575Z,0.41
2023-02-04T21:41:38.529Z,0.45
2023-02-04T21:44:05.877Z,0.42
2023-02-04T21:46:33.532Z,0.41
2023-02-04T21:49:05.478Z,0.30
2023-02-04T21:51:32.721Z,0.19
2023-02-04T21:54:01.345Z,0.26
2023-02-04T21:56:28.685Z,0.45
2023-02-04T21:58:56.858Z,0.43
2023-02-04T22:01:24.167Z,0.35
2023-02-04T22:03:51.175Z,0.31
2023-02-04T22:06:18.780Z,0.39
2023-02-04T22:08:45.738Z,0.33
2023-02-04T22:11:13.030Z,0.25
2023-02-04T22:13:40.203Z,0.25
2023-02-04T22:16:08.025Z,0.09
2023-02-04T22:18:35.090Z,-0.07
2023-02-04T22:21:02.162Z,0.11
2023-02-04T22:23:29.105Z,0.04
2023-02-04T22:25:56.200Z,0.24
2023-02-04T22:28:23.194Z,0.30
2023-02-04T22:30:54.229Z,0.32
2023-02-04T22:33:21.557Z,0.27
2023-02-04T22:35:48.780Z,0.33
2023-02-04T22:38:20.318Z,0.06
2023-02-04T22:40:50.300Z,0.11
2023-02-04T22:43:17.325Z,0.10
2023-02-04T22:45:44.398Z,0.09
2023-02-04T22:48:12.052Z,0.07
2023-02-04T22:50:41.567Z,-0.33
2023-02-04T22:53:08.738Z,-0.21
2023-02-04T22:55:36.553Z,-0.16
2023-02-04T22:58:03.533Z,-0.16
2023-02-04T23:00:31.064Z,-0.32
2023-02-04T23:02:58.301Z,-0.07
2023-02-04T23:05:25.684Z,-0.17
2023-02-04T23:07:52.643Z,-0.14
2023-02-04T23:10:20.318Z,-0.05
2023-02-04T23:12:47.328Z,0.11
2023-02-04T23:15:17.870Z,-0.07
2023-02-04T23:17:45.566Z,-0.21
2023-02-04T23:20:12.611Z,-0.31
2023-02-04T23:22:40.203Z,-0.05
2023-02-04T23:25:08.167Z,-0.06
2023-02-04T23:27:35.536Z,-0.06
2023-02-04T23:30:04.537Z,-0.14
2023-02-04T23:32:31.933Z,-0.20
2023-02-04T23:34:59.442Z,-0.24
2023-02-04T23:37:26.397Z,-0.30
2023-02-04T23:39:54.174Z,-0.38
2023-02-04T23:42:21.231Z,-0.28
2023-02-04T23:44:48.463Z,-0.31
2023-02-04T23:47:15.922Z,-0.11
2023-02-04T23:49:43.184Z,-0.41
2023-02-04T23:52:10.131Z,-0.28
2023-02-04T23:54:37.668Z,-0.37
2023-02-04T23:57:04.688Z,-0.64
2023-02-04T23:59:32.523Z,-0.71
